createdAt,value
2023-02-18T00:00:23.387Z,16.01
2023-02-18T00:01:23.459Z,16.01
2023-02-18T00:02:23.564Z,16.01
2023-02-18T00:03:23.671Z,16.06
2023-02-18T00:04:23.716Z,16.01
2023-02-18T00:05:23.811Z,16.01
2023-02-18T00:06:23.885Z,16.01
2023-02-18T00:07:23.989Z,16.06
2023-02-18T00:08:24.069Z,16.01
2023-02-18T00:09:24.137Z,16.01
2023-02-18T00:10:30.194Z,16.01
2023-02-18T00:11:24.292Z,15.68
2023-02-18T00:12:24.385Z,16.06
2023-02-18T00:13:24.495Z,16.06
2023-02-18T00:14:24.576Z,16.06
2023-02-18T00:15:24.652Z,16.01
2023-02-18T00:16:24.732Z,16.01
2023-02-18T00:17:24.825Z,16.06
2023-02-18T00:18:24.905Z,16.01
2023-02-18T00:19:25.024Z,15.63
2023-02-18T00:20:25.091Z,16.01
2023-02-18T00:21:25.164Z,16.06
2023-02-18T00:22:25.336Z,16.01
2023-02-18T00:23:25.360Z,16.01
2023-02-18T00:24:25.445Z,16.11
2023-02-18T00:25:25.519Z,16.11
2023-02-18T00:26:25.601Z,16.27
2023-02-18T00:27:25.687Z,16.06
2023-02-18T00:28:25.767Z,16.06
2023-02-18T00:29:25.850Z,16.11
2023-02-18T00:30:25.988Z,16.01
2023-02-18T00:31:26.130Z,16.01
2023-02-18T00:32:26.091Z,16.06
2023-02-18T00:33:26.152Z,16.01
2023-02-18T00:34:26.210Z,16.01
2023-02-18T00:35:26.294Z,16.01
2023-02-18T00:36:26.393Z,16.01
2023-02-18T00:37:26.506Z,16.06
2023-02-18T00:38:26.569Z,16.01
2023-02-18T00:39:27.203Z,16.01
2023-02-18T00:40:26.760Z,16.06
2023-02-18T00:41:32.812Z,16.01
2023-02-18T00:42:26.918Z,16.06
2023-02-18T00:43:27.027Z,16.01
2023-02-18T00:44:27.109Z,16.01
2023-02-18T00:45:27.189Z,16.01
2023-02-18T00:46:27.357Z,16.01
2023-02-18T00:47:27.377Z,16.06
2023-02-18T00:48:27.500Z,16.01
2023-02-18T00:49:27.584Z,16.06
2023-02-18T00:50:27.653Z,15.63
2023-02-18T00:51:27.736Z,15.63
2023-02-18T00:52:27.798Z,16.06
2023-02-18T00:53:27.904Z,16.01
2023-02-18T00:54:28.008Z,16.11
2023-02-18T00:55:28.070Z,16.06
2023-02-18T00:56:28.153Z,16.01
2023-02-18T00:57:28.235Z,16.06
2023-02-18T00:58:28.325Z,15.68
2023-02-18T00:59:28.426Z,16.06
2023-02-18T01:00:28.539Z,16.06
2023-02-18T01:01:28.611Z,16.06
2023-02-18T01:02:28.681Z,16.06
2023-02-18T01:03:28.769Z,15.68
2023-02-18T01:04:28.869Z,16.06
2023-02-18T01:05:29.103Z,15.68
2023-02-18T01:06:29.010Z,15.63
2023-02-18T01:07:29.071Z,15.68
2023-02-18T01:08:29.160Z,15.63
2023-02-18T01:09:29.212Z,15.68
2023-02-18T01:10:29.272Z,16.11
2023-02-18T01:11:29.359Z,16.06
2023-02-18T01:12:35.634Z,15.63
2023-02-18T01:13:29.514Z,16.01
2023-02-18T01:14:29.607Z,16.01
2023-02-18T01:15:29.682Z,16.01
2023-02-18T01:16:29.876Z,15.63
2023-02-18T01:17:29.846Z,15.68
2023-02-18T01:18:29.961Z,16.01
2023-02-18T01:19:30.032Z,16.06
2023-02-18T01:20:30.136Z,16.06
2023-02-18T01:21:30.221Z,16.01
2023-02-18T01:22:30.331Z,16.01
2023-02-18T01:23:30.411Z,16.06
2023-02-18T01:24:30.484Z,16.06
2023-02-18T01:25:30.555Z,16.06
2023-02-18T01:26:30.631Z,16.11
2023-02-18T01:27:30.735Z,15.68
2023-02-18T01:28:30.809Z,15.90
2023-02-18T01:29:30.892Z,16.01
2023-02-18T01:30:31.080Z,16.01
2023-02-18T01:31:31.154Z,15.63
2023-02-18T01:32:31.191Z,16.06
2023-02-18T01:33:31.260Z,16.11
2023-02-18T01:34:31.328Z,16.11
2023-02-18T01:35:31.422Z,16.17
2023-02-18T01:36:31.538Z,16.01
2023-02-18T01:37:31.595Z,15.63
2023-02-18T01:38:31.688Z,16.06
2023-02-18T01:39:31.776Z,15.68
2023-02-18T01:40:31.823Z,15.68
2023-02-18T01:41:31.915Z,16.01
2023-02-18T01:42:32.019Z,15.63
2023-02-18T01:43:38.060Z,16.01
2023-02-18T01:44:32.160Z,15.63
2023-02-18T01:45:32.256Z,15.63
2023-02-18T01:46:32.330Z,15.63
2023-02-18T01:47:32.403Z,16.06
2023-02-18T01:48:32.485Z,15.79
2023-02-18T01:49:32.549Z,15.68
2023-02-18T01:50:33.524Z,16.01
2023-02-18T01:51:32.688Z,16.06
2023-02-18T01:52:32.788Z,15.68
2023-02-18T01:53:32.882Z,15.68
2023-02-18T01:54:33.005Z,15.68
2023-02-18T01:55:33.067Z,15.63
2023-02-18T01:56:33.150Z,16.01
2023-02-18T01:57:33.250Z,15.63
2023-02-18T01:58:33.350Z,15.63
2023-02-18T01:59:33.439Z,16.06
2023-02-18T02:00:33.663Z,15.63
2023-02-18T02:01:33.688Z,15.68
2023-02-18T02:02:33.709Z,15.63
2023-02-18T02:03:33.813Z,15.58
2023-02-18T02:04:33.888Z,15.63
2023-02-18T02:05:33.967Z,15.63
2023-02-18T02:06:34.077Z,15.63
2023-02-18T02:07:34.158Z,15.68
2023-02-18T02:08:34.220Z,15.68
2023-02-18T02:09:34.305Z,15.63
2023-02-18T02:10:34.400Z,15.63
2023-02-18T02:11:34.478Z,15.68
2023-02-18T02:12:34.585Z,16.01
2023-02-18T02:13:34.638Z,16.06
2023-02-18T02:14:40.690Z,15.63
2023-02-18T02:15:34.807Z,15.63
2023-02-18T02:16:34.994Z,15.63
2023-02-18T02:17:35.025Z,15.68
2023-02-18T02:18:35.103Z,15.58
2023-02-18T02:19:35.185Z,15.63
2023-02-18T02:20:35.271Z,15.68
2023-02-18T02:21:35.354Z,15.68
2023-02-18T02:22:35.442Z,15.63
2023-02-18T02:23:35.553Z,15.63
2023-02-18T02:24:35.636Z,15.68
2023-02-18T02:25:35.729Z,15.68
2023-02-18T02:26:35.815Z,15.68
2023-02-18T02:27:35.917Z,15.68
2023-02-18T02:28:36.013Z,15.63
2023-02-18T02:29:36.113Z,15.68
2023-02-18T02:30:36.248Z,15.68
2023-02-18T02:31:36.300Z,15.63
2023-02-18T02:32:36.347Z,15.63
2023-02-18T02:33:36.422Z,15.63
2023-02-18T02:34:36.548Z,15.63
2023-02-18T02:35:36.599Z,15.68
2023-02-18T02:36:36.692Z,15.68
2023-02-18T02:37:36.780Z,15.63
2023-02-18T02:38:36.876Z,15.68
2023-02-18T02:39:36.983Z,15.68
2023-02-18T02:40:37.061Z,15.68
2023-02-18T02:41:37.116Z,15.63
2023-02-18T02:42:37.194Z,15.63
2023-02-18T02:43:37.279Z,15.68
2023-02-18T02:44:37.380Z,15.63
2023-02-18T02:45:43.768Z,15.63
2023-02-18T02:46:37.569Z,15.63
2023-02-18T02:47:37.652Z,15.63
2023-02-18T02:48:37.736Z,15.63
2023-02-18T02:49:37.799Z,15.63
2023-02-18T02:50:37.881Z,15.68
2023-02-18T02:51:37.979Z,15.68
2023-02-18T02:52:38.063Z,15.63
2023-02-18T02:53:38.166Z,15.63
2023-02-18T02:54:38.269Z,15.68
2023-02-18T02:55:38.321Z,15.63
2023-02-18T02:56:38.425Z,15.58
2023-02-18T02:57:38.518Z,15.68
2023-02-18T02:58:38.574Z,15.68
2023-02-18T02:59:38.674Z,15.63
2023-02-18T03:00:38.733Z,15.74
2023-02-18T03:01:38.792Z,15.68
2023-02-18T03:02:38.911Z,15.63
2023-02-18T03:03:38.992Z,15.68
2023-02-18T03:04:39.064Z,15.63
2023-02-18T03:05:39.143Z,15.68
2023-02-18T03:06:39.234Z,15.68
2023-02-18T03:07:39.287Z,15.68
2023-02-18T03:08:39.386Z,15.63
2023-02-18T03:09:39.506Z,15.63
2023-02-18T03:10:39.564Z,15.68
2023-02-18T03:11:39.644Z,15.68
2023-02-18T03:12:39.720Z,15.47
2023-02-18T03:13:39.823Z,15.63
2023-02-18T03:14:39.901Z,15.74
2023-02-18T03:15:40.023Z,15.68
2023-02-18T03:16:46.728Z,15.63
2023-02-18T03:17:40.141Z,15.58
2023-02-18T03:18:40.223Z,15.63
2023-02-18T03:19:40.300Z,15.63
2023-02-18T03:20:40.401Z,15.63
2023-02-18T03:21:40.481Z,15.63
2023-02-18T03:22:40.515Z,15.63
2023-02-18T03:23:40.597Z,15.47
2023-02-18T03:24:40.684Z,15.63
2023-02-18T03:25:40.781Z,15.63
2023-02-18T03:26:40.871Z,15.63
2023-02-18T03:27:40.956Z,15.63
2023-02-18T03:28:41.008Z,15.63
2023-02-18T03:29:41.099Z,15.68
2023-02-18T03:30:41.184Z,15.63
2023-02-18T03:31:41.401Z,15.68
2023-02-18T03:32:41.356Z,15.47
2023-02-18T03:33:41.444Z,15.63
2023-02-18T03:34:41.498Z,15.68
2023-02-18T03:35:41.584Z,15.63
2023-02-18T03:36:41.678Z,15.68
2023-02-18T03:37:41.774Z,15.68
2023-02-18T03:38:41.863Z,15.79
2023-02-18T03:39:41.953Z,15.63
2023-02-18T03:40:42.044Z,15.63
2023-02-18T03:41:42.138Z,15.68
2023-02-18T03:42:42.219Z,15.63
2023-02-18T03:43:42.285Z,15.68
2023-02-18T03:44:42.384Z,15.68
2023-02-18T03:45:42.470Z,15.63
2023-02-18T03:46:42.502Z,15.68
2023-02-18T03:47:49.205Z,15.63
2023-02-18T03:48:42.699Z,15.63
2023-02-18T03:49:42.797Z,15.63
2023-02-18T03:50:42.837Z,15.68
2023-02-18T03:51:42.922Z,15.68
2023-02-18T03:52:43.012Z,15.63
2023-02-18T03:53:43.096Z,15.63
2023-02-18T03:54:43.193Z,15.47
2023-02-18T03:55:43.304Z,15.63
2023-02-18T03:56:43.346Z,15.63
2023-02-18T03:57:43.411Z,15.68
2023-02-18T03:58:43.515Z,15.68
2023-02-18T03:59:43.603Z,15.63
2023-02-18T04:00:43.704Z,15.63
2023-02-18T04:01:43.736Z,15.63
2023-02-18T04:02:43.820Z,15.63
2023-02-18T04:03:43.876Z,15.68
2023-02-18T04:04:43.961Z,15.63
2023-02-18T04:05:44.065Z,15.68
2023-02-18T04:06:44.166Z,15.68
2023-02-18T04:07:44.229Z,15.68
2023-02-18T04:08:44.306Z,15.63
2023-02-18T04:09:44.386Z,15.47
2023-02-18T04:10:44.477Z,15.42
2023-02-18T04:11:44.586Z,15.63
2023-02-18T04:12:44.639Z,15.42
2023-02-18T04:13:44.738Z,15.63
2023-02-18T04:14:44.797Z,15.68
2023-02-18T04:15:44.861Z,15.42
2023-02-18T04:16:44.961Z,15.63
2023-02-18T04:17:45.005Z,15.68
2023-02-18T04:18:51.053Z,15.42
2023-02-18T04:19:45.159Z,15.63
2023-02-18T04:20:45.259Z,15.58
2023-02-18T04:21:45.347Z,15.63
2023-02-18T04:22:45.443Z,15.42
2023-02-18T04:23:45.779Z,15.63
2023-02-18T04:24:45.610Z,15.63
2023-02-18T04:25:45.720Z,15.68
2023-02-18T04:26:45.794Z,15.63
2023-02-18T04:27:45.869Z,15.79
2023-02-18T04:28:45.960Z,15.63
2023-02-18T04:29:46.072Z,15.63
2023-02-18T04:30:46.234Z,15.63
2023-02-18T04:31:46.332Z,15.42
2023-02-18T04:32:46.313Z,15.63
2023-02-18T04:33:46.397Z,15.63
2023-02-18T04:34:46.493Z,15.63
2023-02-18T04:35:46.555Z,15.47
2023-02-18T04:36:46.650Z,15.63
2023-02-18T04:37:46.733Z,15.42
2023-02-18T04:38:46.839Z,15.68
2023-02-18T04:39:46.933Z,15.63
2023-02-18T04:40:47.031Z,16.06
2023-02-18T04:41:47.086Z,15.42
2023-02-18T04:42:47.168Z,15.68
2023-02-18T04:43:47.248Z,15.68
2023-02-18T04:44:47.712Z,15.47
2023-02-18T04:45:47.470Z,15.58
2023-02-18T04:46:47.539Z,15.63
2023-02-18T04:47:47.585Z,15.68
2023-02-18T04:48:47.686Z,15.52
2023-02-18T04:49:53.747Z,15.63
2023-02-18T04:50:47.878Z,15.68
2023-02-18T04:51:47.955Z,15.63
2023-02-18T04:52:48.054Z,15.42
2023-02-18T04:53:48.113Z,15.63
2023-02-18T04:54:48.211Z,15.42
2023-02-18T04:55:48.291Z,15.63
2023-02-18T04:56:48.391Z,15.63
2023-02-18T04:57:48.504Z,15.63
2023-02-18T04:58:48.556Z,15.42
2023-02-18T04:59:48.643Z,15.42
2023-02-18T05:00:48.739Z,15.68
2023-02-18T05:01:48.838Z,15.68
2023-02-18T05:02:48.924Z,15.68
2023-02-18T05:03:49.049Z,15.42
2023-02-18T05:04:49.076Z,15.42
2023-02-18T05:05:49.162Z,15.63
2023-02-18T05:06:49.215Z,15.63
2023-02-18T05:07:49.293Z,15.47
2023-02-18T05:08:49.362Z,15.47
2023-02-18T05:09:49.468Z,15.47
2023-02-18T05:10:49.540Z,15.63
2023-02-18T05:11:49.650Z,15.68
2023-02-18T05:12:49.724Z,15.47
2023-02-18T05:13:49.799Z,15.47
2023-02-18T05:14:49.891Z,15.63
2023-02-18T05:15:50.022Z,15.42
2023-02-18T05:16:50.069Z,15.47
2023-02-18T05:17:50.160Z,15.52
2023-02-18T05:18:50.218Z,15.42
2023-02-18T05:19:50.313Z,15.68
2023-02-18T05:20:56.792Z,15.42
2023-02-18T05:21:50.471Z,15.47
2023-02-18T05:22:50.591Z,15.47
2023-02-18T05:23:50.678Z,15.63
2023-02-18T05:24:50.734Z,15.42
2023-02-18T05:25:50.816Z,15.68
2023-02-18T05:26:50.934Z,15.47
2023-02-18T05:27:51.012Z,15.68
2023-02-18T05:28:51.105Z,15.47
2023-02-18T05:29:51.186Z,15.68
2023-02-18T05:30:51.294Z,15.42
2023-02-18T05:31:51.414Z,15.47
2023-02-18T05:32:51.449Z,15.47
2023-02-18T05:33:51.522Z,15.42
2023-02-18T05:34:51.592Z,15.47
2023-02-18T05:35:51.669Z,15.42
2023-02-18T05:36:51.768Z,15.63
2023-02-18T05:37:51.866Z,15.42
2023-02-18T05:38:51.925Z,15.42
2023-02-18T05:39:52.012Z,15.63
2023-02-18T05:40:52.181Z,15.68
2023-02-18T05:41:52.198Z,15.42
2023-02-18T05:42:52.312Z,15.47
2023-02-18T05:43:52.396Z,15.47
2023-02-18T05:44:52.475Z,15.42
2023-02-18T05:45:52.579Z,15.42
2023-02-18T05:46:52.647Z,15.47
2023-02-18T05:47:52.724Z,15.42
2023-02-18T05:48:52.828Z,15.47
2023-02-18T05:49:52.878Z,15.47
2023-02-18T05:50:52.978Z,15.47
2023-02-18T05:51:59.045Z,15.42
2023-02-18T05:52:53.179Z,15.42
2023-02-18T05:53:53.237Z,15.42
2023-02-18T05:54:53.351Z,15.52
2023-02-18T05:55:53.418Z,15.52
2023-02-18T05:56:53.498Z,15.47
2023-02-18T05:57:53.585Z,15.68
2023-02-18T05:58:53.649Z,15.47
2023-02-18T05:59:53.769Z,15.47
2023-02-18T06:00:53.838Z,15.47
2023-02-18T06:01:53.942Z,15.47
2023-02-18T06:02:54.096Z,15.58
2023-02-18T06:03:54.117Z,15.47
2023-02-18T06:04:54.200Z,15.47
2023-02-18T06:05:54.326Z,15.52
2023-02-18T06:06:54.356Z,15.42
2023-02-18T06:07:56.610Z,15.42
2023-02-18T06:08:54.518Z,15.47
2023-02-18T06:09:54.593Z,15.68
2023-02-18T06:10:54.714Z,15.52
2023-02-18T06:11:54.831Z,15.42
2023-02-18T06:12:54.899Z,15.42
2023-02-18T06:13:54.979Z,15.52
2023-02-18T06:14:55.065Z,15.42
2023-02-18T06:15:55.346Z,15.47
2023-02-18T06:16:55.235Z,15.47
2023-02-18T06:17:55.297Z,15.42
2023-02-18T06:18:55.433Z,15.42
2023-02-18T06:19:55.493Z,15.52
2023-02-18T06:20:55.586Z,15.42
2023-02-18T06:21:55.691Z,15.47
2023-02-18T06:23:01.749Z,15.47
2023-02-18T06:23:55.850Z,15.47
2023-02-18T06:24:55.911Z,15.42
2023-02-18T06:25:56.000Z,15.47
2023-02-18T06:26:56.068Z,15.47
2023-02-18T06:27:56.163Z,15.42
2023-02-18T06:28:56.204Z,15.42
2023-02-18T06:29:56.264Z,15.42
2023-02-18T06:30:56.351Z,15.52
2023-02-18T06:31:56.554Z,15.42
2023-02-18T06:32:56.548Z,15.52
2023-02-18T06:33:56.602Z,15.42
2023-02-18T06:34:56.678Z,15.47
2023-02-18T06:35:56.782Z,15.42
2023-02-18T06:36:56.870Z,15.42
2023-02-18T06:37:56.988Z,15.47
2023-02-18T06:38:57.029Z,15.47
2023-02-18T06:39:57.075Z,15.42
2023-02-18T06:40:57.137Z,15.42
2023-02-18T06:41:57.224Z,15.42
2023-02-18T06:42:57.299Z,15.42
2023-02-18T06:43:57.365Z,15.47
2023-02-18T06:44:57.581Z,15.47
2023-02-18T06:45:57.562Z,15.47
2023-02-18T06:46:57.691Z,15.47
2023-02-18T06:47:57.729Z,15.42
2023-02-18T06:48:57.822Z,15.42
2023-02-18T06:49:57.905Z,15.47
2023-02-18T06:50:58.011Z,15.47
2023-02-18T06:51:58.080Z,15.47
2023-02-18T06:52:58.168Z,15.47
2023-02-18T06:54:04.215Z,15.36
2023-02-18T06:54:58.314Z,15.42
2023-02-18T06:55:58.416Z,15.47
2023-02-18T06:56:58.521Z,15.52
2023-02-18T06:57:58.583Z,15.42
2023-02-18T06:58:58.657Z,15.42
2023-02-18T06:59:58.752Z,15.42
2023-02-18T07:00:58.954Z,15.42
2023-02-18T07:01:58.893Z,15.52
2023-02-18T07:02:58.982Z,15.42
2023-02-18T07:03:59.075Z,15.47
2023-02-18T07:04:59.108Z,15.52
2023-02-18T07:05:59.174Z,15.42
2023-02-18T07:06:59.251Z,15.42
2023-02-18T07:07:59.315Z,15.47
2023-02-18T07:08:59.473Z,15.42
2023-02-18T07:09:59.510Z,15.47
2023-02-18T07:10:59.587Z,15.42
2023-02-18T07:11:59.670Z,15.63
2023-02-18T07:12:59.765Z,15.47
2023-02-18T07:13:59.877Z,15.47
2023-02-18T07:14:59.959Z,15.42
2023-02-18T07:16:00.105Z,15.42
2023-02-18T07:17:00.113Z,15.52
2023-02-18T07:18:00.186Z,15.47
2023-02-18T07:19:00.254Z,15.47
2023-02-18T07:20:00.351Z,15.47
2023-02-18T07:21:00.429Z,15.42
2023-02-18T07:22:00.523Z,15.47
2023-02-18T07:23:00.611Z,15.42
2023-02-18T07:24:00.705Z,15.47
2023-02-18T07:25:06.845Z,15.36
2023-02-18T07:26:00.852Z,15.42
2023-02-18T07:27:00.944Z,15.47
2023-02-18T07:28:01.028Z,15.47
2023-02-18T07:29:01.098Z,15.42
2023-02-18T07:30:01.210Z,15.25
2023-02-18T07:31:01.317Z,15.47
2023-02-18T07:32:01.388Z,15.47
2023-02-18T07:33:03.831Z,15.42
2023-02-18T07:34:01.538Z,15.52
2023-02-18T07:35:01.625Z,15.47
2023-02-18T07:36:01.732Z,15.42
2023-02-18T07:37:01.786Z,15.47
2023-02-18T07:38:01.877Z,15.42
2023-02-18T07:39:01.944Z,15.42
2023-02-18T07:40:02.041Z,15.25
2023-02-18T07:41:02.097Z,15.47
2023-02-18T07:42:02.208Z,15.42
2023-02-18T07:43:02.255Z,15.47
2023-02-18T07:44:02.333Z,15.42
2023-02-18T07:45:02.427Z,15.47
2023-02-18T07:46:02.606Z,15.42
2023-02-18T07:47:02.625Z,15.42
2023-02-18T07:48:02.705Z,15.47
2023-02-18T07:49:02.795Z,15.42
2023-02-18T07:50:02.890Z,15.42
2023-02-18T07:51:02.968Z,15.47
2023-02-18T07:52:04.497Z,15.20
2023-02-18T07:53:03.165Z,15.42
2023-02-18T07:54:03.250Z,15.52
2023-02-18T07:55:03.345Z,15.42
2023-02-18T07:56:09.778Z,15.47
2023-02-18T07:57:03.446Z,15.42
2023-02-18T07:58:03.556Z,15.47
2023-02-18T07:59:03.610Z,15.47
2023-02-18T08:00:03.673Z,15.36
2023-02-18T08:01:03.772Z,15.47
2023-02-18T08:02:03.878Z,15.25
2023-02-18T08:03:03.944Z,15.47
2023-02-18T08:04:04.178Z,15.25
2023-02-18T08:05:04.133Z,15.42
2023-02-18T08:06:04.226Z,15.47
2023-02-18T08:07:04.309Z,15.25
2023-02-18T08:08:04.395Z,15.42
2023-02-18T08:09:04.501Z,15.25
2023-02-18T08:10:04.575Z,15.42
2023-02-18T08:11:13.254Z,15.47
2023-02-18T08:12:04.747Z,15.42
2023-02-18T08:13:04.801Z,15.47
2023-02-18T08:14:04.877Z,15.36
2023-02-18T08:15:04.971Z,15.47
2023-02-18T08:16:05.019Z,15.25
2023-02-18T08:17:05.098Z,15.36
2023-02-18T08:18:05.138Z,15.42
2023-02-18T08:19:05.236Z,15.20
2023-02-18T08:20:05.325Z,15.47
2023-02-18T08:21:05.439Z,15.47
2023-02-18T08:22:05.521Z,15.25
2023-02-18T08:23:05.576Z,15.42
2023-02-18T08:24:05.666Z,15.47
2023-02-18T08:25:05.788Z,15.42
2023-02-18T08:26:05.950Z,15.25
2023-02-18T08:27:11.868Z,15.42
2023-02-18T08:28:05.981Z,15.25
2023-02-18T08:29:06.081Z,15.42
2023-02-18T08:30:06.238Z,15.47
2023-02-18T08:31:06.393Z,15.58
2023-02-18T08:32:06.486Z,15.42
2023-02-18T08:33:06.445Z,15.42
2023-02-18T08:34:06.552Z,15.25
2023-02-18T08:35:06.618Z,15.42
2023-02-18T08:36:07.123Z,15.36
2023-02-18T08:37:06.776Z,15.42
2023-02-18T08:38:06.821Z,15.25
2023-02-18T08:39:06.884Z,15.42
2023-02-18T08:40:06.986Z,15.42
2023-02-18T08:41:07.477Z,15.47
2023-02-18T08:42:07.181Z,15.20
2023-02-18T08:43:07.266Z,15.36
2023-02-18T08:44:07.335Z,15.42
2023-02-18T08:45:07.421Z,15.25
2023-02-18T08:46:07.573Z,15.52
2023-02-18T08:48:18.539Z,15.31
2023-02-18T08:48:24.698Z,15.25
2023-02-18T08:49:07.764Z,15.25
2023-02-18T08:50:07.870Z,15.36
2023-02-18T08:51:08.067Z,15.47
2023-02-18T08:52:08.037Z,15.20
2023-02-18T08:53:08.113Z,15.25
2023-02-18T08:54:08.188Z,15.25
2023-02-18T08:55:08.239Z,15.47
2023-02-18T08:56:08.337Z,15.47
2023-02-18T08:57:08.422Z,15.31
2023-02-18T08:58:14.479Z,15.20
2023-02-18T08:59:08.612Z,15.42
2023-02-18T09:00:08.682Z,15.25
2023-02-18T09:01:09.205Z,15.52
2023-02-18T09:02:08.863Z,15.31
2023-02-18T09:03:08.956Z,15.25
2023-02-18T09:04:09.060Z,15.31
2023-02-18T09:05:09.119Z,15.47
2023-02-18T09:06:09.194Z,15.25
2023-02-18T09:07:09.281Z,15.25
2023-02-18T09:08:09.370Z,15.25
2023-02-18T09:09:09.465Z,15.47
2023-02-18T09:10:09.572Z,15.25
2023-02-18T09:11:09.979Z,15.25
2023-02-18T09:12:09.734Z,15.25
2023-02-18T09:13:09.806Z,15.31
2023-02-18T09:14:09.881Z,15.20
2023-02-18T09:15:09.979Z,15.20
2023-02-18T09:16:10.149Z,15.47
2023-02-18T09:17:10.124Z,15.31
2023-02-18T09:18:10.198Z,15.47
2023-02-18T09:19:10.294Z,15.31
2023-02-18T09:20:10.372Z,15.42
2023-02-18T09:21:10.763Z,15.25
2023-02-18T09:22:10.569Z,15.25
2023-02-18T09:23:10.633Z,15.25
2023-02-18T09:24:10.693Z,15.63
2023-02-18T09:25:10.790Z,15.25
2023-02-18T09:26:10.873Z,15.25
2023-02-18T09:27:11.373Z,15.20
2023-02-18T09:28:11.036Z,15.31
2023-02-18T09:29:17.067Z,15.52
2023-02-18T09:30:11.262Z,15.25
2023-02-18T09:31:11.802Z,15.47
2023-02-18T09:32:11.432Z,15.25
2023-02-18T09:33:11.463Z,15.20
2023-02-18T09:34:11.524Z,15.31
2023-02-18T09:35:11.622Z,15.25
2023-02-18T09:36:11.687Z,15.20
2023-02-18T09:37:11.763Z,15.25
2023-02-18T09:38:11.830Z,15.25
2023-02-18T09:39:11.938Z,15.25
2023-02-18T09:40:14.609Z,15.25
2023-02-18T09:41:12.889Z,15.47
2023-02-18T09:42:12.169Z,15.25
2023-02-18T09:43:12.228Z,15.25
2023-02-18T09:44:12.317Z,15.31
2023-02-18T09:45:12.421Z,15.31
2023-02-18T09:46:12.514Z,15.36
2023-02-18T09:47:12.573Z,15.25
2023-02-18T09:48:12.649Z,15.20
2023-02-18T09:49:12.750Z,15.42
2023-02-18T09:50:12.859Z,15.25
2023-02-18T09:51:12.889Z,15.25
2023-02-18T09:52:12.965Z,15.25
2023-02-18T09:53:13.057Z,15.25
2023-02-18T09:54:13.111Z,15.31
2023-02-18T09:55:13.211Z,15.25
2023-02-18T09:56:13.309Z,15.25
2023-02-18T09:57:13.352Z,15.25
2023-02-18T09:58:13.442Z,15.25
2023-02-18T09:59:13.544Z,15.42
2023-02-18T10:00:19.616Z,15.25
2023-02-18T10:01:13.751Z,15.25
2023-02-18T10:02:13.817Z,15.31
2023-02-18T10:03:13.868Z,15.20
2023-02-18T10:04:13.947Z,15.31
2023-02-18T10:05:14.031Z,15.25
2023-02-18T10:06:14.118Z,15.25
2023-02-18T10:07:14.235Z,15.47
2023-02-18T10:08:14.356Z,15.25
2023-02-18T10:09:14.413Z,15.25
2023-02-18T10:10:14.523Z,15.25
2023-02-18T10:11:14.630Z,15.25
2023-02-18T10:12:14.748Z,15.25
2023-02-18T10:13:14.790Z,15.31
2023-02-18T10:14:14.842Z,15.25
2023-02-18T10:15:14.918Z,15.25
2023-02-18T10:16:15.028Z,15.36
2023-02-18T10:17:15.099Z,15.25
2023-02-18T10:18:15.213Z,15.25
2023-02-18T10:19:15.281Z,15.25
2023-02-18T10:20:15.378Z,15.20
2023-02-18T10:21:15.452Z,15.20
2023-02-18T10:22:15.514Z,15.25
2023-02-18T10:23:15.593Z,15.25
2023-02-18T10:24:15.693Z,15.31
2023-02-18T10:25:15.771Z,15.25
2023-02-18T10:26:15.855Z,15.25
2023-02-18T10:27:15.932Z,15.25
2023-02-18T10:28:16.011Z,15.52
2023-02-18T10:29:16.109Z,15.20
2023-02-18T10:30:16.193Z,15.25
2023-02-18T10:31:22.322Z,15.20
2023-02-18T10:32:16.329Z,15.42
2023-02-18T10:33:16.388Z,15.20
2023-02-18T10:34:16.491Z,15.25
2023-02-18T10:35:16.555Z,15.31
2023-02-18T10:36:16.636Z,15.25
2023-02-18T10:37:16.717Z,15.25
2023-02-18T10:38:16.809Z,15.31
2023-02-18T10:39:16.888Z,15.31
2023-02-18T10:40:17.008Z,15.25
2023-02-18T10:41:17.054Z,15.25
2023-02-18T10:42:17.128Z,15.31
2023-02-18T10:43:17.223Z,15.25
2023-02-18T10:44:17.352Z,15.25
2023-02-18T10:45:17.426Z,15.25
2023-02-18T10:46:17.571Z,15.25
2023-02-18T10:47:17.618Z,15.25
2023-02-18T10:48:17.713Z,15.20
2023-02-18T10:49:17.786Z,15.31
2023-02-18T10:50:17.894Z,15.25
2023-02-18T10:51:17.966Z,15.25
2023-02-18T10:52:18.062Z,15.36
2023-02-18T10:53:18.116Z,15.25
2023-02-18T10:54:18.192Z,15.31
2023-02-18T10:55:18.271Z,15.25
2023-02-18T10:56:18.389Z,15.25
2023-02-18T10:57:18.444Z,15.20
2023-02-18T10:58:18.530Z,15.20
2023-02-18T10:59:18.618Z,15.25
2023-02-18T11:00:18.849Z,15.25
2023-02-18T11:01:18.853Z,15.20
2023-02-18T11:02:24.863Z,15.31
2023-02-18T11:03:18.986Z,15.25
2023-02-18T11:04:19.167Z,15.25
2023-02-18T11:05:19.145Z,15.25
2023-02-18T11:06:19.216Z,15.25
2023-02-18T11:07:19.324Z,15.31
2023-02-18T11:08:19.404Z,15.25
2023-02-18T11:09:19.495Z,15.25
2023-02-18T11:10:19.580Z,15.31
2023-02-18T11:11:19.661Z,15.25
2023-02-18T11:12:19.752Z,15.25
2023-02-18T11:13:19.800Z,15.20
2023-02-18T11:14:19.884Z,15.25
2023-02-18T11:15:19.988Z,14.82
2023-02-18T11:16:20.131Z,15.42
2023-02-18T11:17:20.138Z,15.25
2023-02-18T11:18:20.249Z,15.25
2023-02-18T11:19:20.333Z,15.31
2023-02-18T11:20:20.401Z,15.25
2023-02-18T11:21:21.565Z,15.25
2023-02-18T11:22:20.611Z,14.88
2023-02-18T11:23:20.654Z,15.25
2023-02-18T11:24:20.759Z,15.31
2023-02-18T11:25:20.856Z,15.31
2023-02-18T11:26:20.937Z,15.25
2023-02-18T11:27:21.050Z,15.31
2023-02-18T11:28:21.083Z,15.20
2023-02-18T11:29:21.191Z,15.20
2023-02-18T11:30:21.279Z,15.25
2023-02-18T11:31:21.430Z,15.20
2023-02-18T11:32:21.468Z,15.25
2023-02-18T11:33:27.985Z,15.25
2023-02-18T11:34:21.593Z,15.31
2023-02-18T11:35:21.673Z,14.88
2023-02-18T11:36:21.756Z,15.25
2023-02-18T11:37:21.873Z,15.25
2023-02-18T11:38:21.937Z,15.25
2023-02-18T11:39:22.016Z,14.88
2023-02-18T11:40:22.070Z,15.25
2023-02-18T11:41:22.133Z,15.20
2023-02-18T11:42:22.263Z,14.88
2023-02-18T11:43:22.324Z,15.31
2023-02-18T11:44:22.406Z,15.25
2023-02-18T11:45:22.529Z,15.25
2023-02-18T11:46:22.661Z,15.25
2023-02-18T11:47:22.701Z,14.88
2023-02-18T11:48:22.795Z,15.25
2023-02-18T11:49:22.869Z,15.20
2023-02-18T11:50:22.975Z,15.25
2023-02-18T11:51:23.073Z,14.93
2023-02-18T11:52:23.156Z,14.88
2023-02-18T11:53:23.254Z,15.20
2023-02-18T11:54:23.343Z,15.31
2023-02-18T11:55:23.434Z,15.31
2023-02-18T11:56:23.506Z,15.20
2023-02-18T11:57:23.561Z,15.20
2023-02-18T11:58:23.642Z,14.88
2023-02-18T11:59:23.718Z,15.25
2023-02-18T12:00:23.848Z,15.25
2023-02-18T12:01:23.961Z,15.31
2023-02-18T12:02:24.000Z,14.88
2023-02-18T12:03:24.104Z,15.31
2023-02-18T12:04:30.155Z,15.20
2023-02-18T12:05:24.400Z,14.77
2023-02-18T12:06:24.340Z,14.88
2023-02-18T12:07:24.430Z,15.25
2023-02-18T12:08:24.499Z,14.82
2023-02-18T12:09:24.538Z,14.82
2023-02-18T12:10:24.614Z,14.82
2023-02-18T12:11:24.691Z,14.88
2023-02-18T12:12:24.798Z,15.31
2023-02-18T12:13:24.858Z,14.88
2023-02-18T12:14:24.970Z,15.25
2023-02-18T12:15:25.051Z,15.31
2023-02-18T12:16:25.177Z,14.88
2023-02-18T12:17:25.249Z,14.88
2023-02-18T12:18:25.326Z,14.88
2023-02-18T12:19:25.407Z,14.88
2023-02-18T12:20:25.514Z,14.88
2023-02-18T12:21:25.597Z,14.88
2023-02-18T12:22:25.673Z,15.31
2023-02-18T12:23:25.779Z,15.25
2023-02-18T12:24:25.867Z,14.88
2023-02-18T12:25:25.979Z,14.82
2023-02-18T12:26:26.068Z,14.82
2023-02-18T12:27:26.174Z,14.88
2023-02-18T12:28:26.208Z,14.88
2023-02-18T12:29:26.272Z,14.88
2023-02-18T12:30:26.404Z,14.93
2023-02-18T12:31:26.638Z,14.88
2023-02-18T12:32:26.527Z,15.25
2023-02-18T12:33:26.604Z,14.82
2023-02-18T12:34:26.699Z,15.36
2023-02-18T12:35:32.745Z,14.82
2023-02-18T12:36:26.862Z,14.88
2023-02-18T12:37:26.964Z,15.31
2023-02-18T12:38:27.037Z,14.88
2023-02-18T12:39:27.128Z,15.25
2023-02-18T12:40:27.229Z,14.88
2023-02-18T12:41:27.327Z,14.88
2023-02-18T12:42:27.428Z,14.88
2023-02-18T12:43:27.531Z,14.88
2023-02-18T12:44:27.601Z,14.88
2023-02-18T12:45:27.697Z,14.82
2023-02-18T12:46:27.752Z,14.88
2023-02-18T12:47:27.838Z,14.88
2023-02-18T12:48:27.918Z,14.88
2023-02-18T12:49:27.997Z,14.93
2023-02-18T12:50:28.075Z,14.88
2023-02-18T12:51:30.342Z,14.93
2023-02-18T12:52:28.254Z,14.77
2023-02-18T12:53:28.318Z,15.25